Observations for RENNES ST. JACQUES, France (LFRN)

LFRN 182100Z AUTO 05006KT CAVOK 03/00 Q1018 NOSIG   
LFRN 182030Z AUTO 05006KT CAVOK 03/00 Q1018 NOSIG   
LFRN 182000Z AUTO 07007KT CAVOK 04/01 Q1018 NOSIG   
LFRN 181930Z AUTO 06008KT CAVOK 05/01 Q1018 NOSIG   
LFRN 181900Z AUTO 06009KT CAVOK 05/01 Q1018 NOSIG   
LFRN 181830Z AUTO 06010KT CAVOK 05/02 Q1018 NOSIG   
LFRN 181800Z AUTO 06010KT CAVOK 06/02 Q1018 NOSIG   
LFRN 181730Z AUTO 06007KT CAVOK 06/02 Q1018 NOSIG   
LFRN 181700Z AUTO 07011KT CAVOK 07/01 Q1018 TEMPO 07015G25KT
LFRN 181630Z AUTO 07010KT CAVOK 07/02 Q1018 TEMPO 07015G25KT
LFRN 181600Z AUTO 07010KT CAVOK 08/02 Q1017 TEMPO 07015G25KT
LFRN 181530Z AUTO 07013KT CAVOK 09/02 Q1017 TEMPO 07015G25KT
LFRN 181500Z AUTO 08013KT CAVOK 09/02 Q1017 TEMPO 07015G25KT
LFRN 181430Z AUTO 07012KT CAVOK 09/02 Q1018 TEMPO 07015G25KT
LFRN 181400Z AUTO 07012KT CAVOK 09/03 Q1018 NOSIG   
LFRN 181330Z AUTO 06010KT CAVOK 09/03 Q1018 NOSIG   
LFRN 181300Z AUTO 07010KT 050V120 CAVOK 09/03 Q1018 NOSIG   
LFRN 181230Z AUTO 08009KT CAVOK 09/03 Q1018 NOSIG   
LFRN 181200Z AUTO 08010KT CAVOK 08/03 Q1019 NOSIG   
LFRN 181130Z AUTO 08012KT CAVOK 08/02 Q1019 NOSIG   
LFRN 181100Z AUTO 07011KT CAVOK 08/03 Q1020 NOSIG   
LFRN 181030Z AUTO 08012KT CAVOK 07/03 Q1020 NOSIG   
LFRN 181000Z AUTO 09007KT 060V120 CAVOK 07/03 Q1020 NOSIG   
LFRN 180930Z AUTO 08009KT CAVOK 06/02 Q1020 NOSIG   
LFRN 180900Z AUTO 07010KT CAVOK 05/02 Q1020 NOSIG   
LFRN 180830Z AUTO 07007KT CAVOK 04/02 Q1020 NOSIG   
LFRN 180800Z AUTO 07007KT CAVOK 03/02 Q1020 NOSIG   
LFRN 180730Z AUTO 07006KT 9000 NSC 02/01 Q1020 NOSIG
LFRN 180700Z AUTO 07006KT 8000 NSC 02/01 Q1019 NOSIG
LFRN 180630Z AUTO 07006KT 8000 NSC 02/01 Q1019 NOSIG
LFRN 180600Z AUTO 07004KT 7000 NSC 02/01 Q1019 NOSIG
LFRN 180530Z AUTO 09004KT 7000 NSC 02/01 Q1019 NOSIG
LFRN 180500Z AUTO 08003KT 7000 NSC 03/02 Q1019 NOSIG
LFRN 180430Z AUTO 07005KT 7000 NSC 03/02 Q1019 NOSIG
LFRN 180400Z AUTO 06006KT 7000 FEW026 02/01 Q1019 NOSIG 
LFRN 180330Z AUTO VRB02KT 7000 BKN025 02/02 Q1019 NOSIG 
LFRN 180300Z AUTO 06004KT 7000 NSC 02/01 Q1019 NOSIG
LFRN 180230Z AUTO 07007KT 7000 NSC 03/02 Q1019 NOSIG
LFRN 180200Z AUTO 07007KT 7000 NSC 03/02 Q1019 NOSIG
LFRN 180130Z AUTO 05005KT 7000 NSC 03/01 Q1019 NOSIG
LFRN 180100Z AUTO 06006KT 7000 NSC 03/02 Q1019 NOSIG
LFRN 180030Z AUTO 07005KT 7000 NSC 03/01 Q1019 NOSIG
LFRN 180000Z AUTO 08007KT 7000 NSC 03/02 Q1019 NOSIG
LFRN 172330Z AUTO 07007KT 7000 NSC 03/01 Q1019 NOSIG
LFRN 172300Z AUTO 09006KT 7000 NSC 04/02 Q1019 NOSIG
LFRN 172230Z AUTO 10007KT 7000 NSC 04/02 Q1020 NOSIG
LFRN 172200Z AUTO 09008KT 7000 NSC 04/02 Q1019 NOSIG
LFRN 172130Z AUTO 09008KT 6000 FEW021 05/03 Q1020 NOSIG 
LFRN 172100Z AUTO 09010KT 6000 BKN021 05/03 Q1020 NOSIG 
LFRN 172030Z AUTO 09010KT 6000 OVC019 06/03 Q1020 NOSIG